ADDS METAR Data INFO
IDs: Format: Raw Decoded Include TAF

Data at: 0850 UTC 22 Feb 2018

PANC 220753Z 09003KT 1/4SM R07R/2800VP6000FT FZFG VV002 M05/M06 A3024 RMK AO2 SLP244 I1000 T10501061
PANC 220700Z 00000KT 3/4SM R07R/3500VP6000FT BR VV001 M05/M06 A3027 RMK AO2 T10501056
PANC 220653Z 00000KT 3/4SM R07R/5000VP6000FT BR VV002 M05/M06 A3027 RMK AO2 SLP253 I1000 T10501061
PANC 220633Z 14003KT 1SM R07R/3000V6000FT BR VV002 M06/M06 A3027 RMK AO2 I1000 T10561061
PANC 220619Z 14003KT 2SM R07R/2000V6000FT BR OVC002 M06/M07 A3027 RMK AO2 T10561067
PANC 220600Z 15004KT 5SM R07R/4000VP6000FT BR BKN002 M06/M07 A3028 RMK AO2 T10561067
PANC 220553Z 16003KT 7SM R07R/6000VP6000FT BKN006 OVC030 M06/M07 A3028 RMK AO2 SLP257 I1000 I6000 T10611072 11033 21067 58017
PANC 220548Z 13004KT 7SM R07R/6000VP6000FT BKN006 OVC030 M05/M06 A3028 RMK AO2 I1000
PANC 220515Z COR 00000KT 7SM BKN006 OVC030 M05/M06 A3029 RMK AO2 T10501061
PANC 220453Z 00000KT 10SM FEW006 BKN030 OVC120 M07/M08 A3031 RMK AO2 SLP266 I1000 T10671083
PANC 220353Z 00000KT 10SM FEW006 BKN030 OVC120 M06/M07 A3032 RMK AO2 SLP270 T10561072
PANC 212353Z VRB04KT 10SM VCFG SCT007 BKN120 BKN200 M04/M06 A3039 RMK AO2 SLP294 4/013 VCFG SE T10441061 11039 21061 56009
PANC 212253Z 00000KT 10SM VCFG FEW005 BKN040 BKN120 OVC200 M04/M06 A3039 RMK AO2 SLP295 T10391056
PANC 212153Z 33005KT 10SM VCFG FEW006 BKN120 OVC250 M05/M07 A3041 RMK AO2 SLP300 VCFG E T10501067
PANC 212053Z VRB03KT 10SM VCFG FEW005 BKN120 BKN170 M04/M06 A3042 RMK AO2 SLP303 VCFG E T10441061 58007
PANC 211953Z 32003KT 10SM VCFG FEW005 BKN120 BKN170 M05/M06 A3043 RMK AO2 SLP308 VCFG E T10501061
PANC 211853Z 08005KT 10SM VCFG FEW005 BKN120 BKN200 M06/M07 A3044 RMK AO2 SLP311 VCFG E T10561067
PANC 211753Z 34003KT 10SM FEW004 BKN120 M06/M08 A3044 RMK AO2 SLP310 I6000 T10611078 11050 21061 58007 $
PANC 211653Z 30004KT 10SM FEW005 BKN130 M06/M07 A3045 RMK AO2 SLP315 T10561072 $
PANC 211553Z 00000KT 10SM FEW005 FEW120 M06/M08 A3045 RMK AO2 SLP315 T10561078 $
PANC 211453Z 04003KT 10SM FEW005 BKN120 M06/M07 A3046 RMK AO2 SLP317 I3000 T10611072 56016 $
PANC 211451Z 00000KT 10SM FEW005 BKN120 M06/M07 A3045 RMK AO2 $
PANC 211353Z 33004KT 10SM FEW010 BKN150 M06/M07 A3047 RMK AO2 SLP320 T10561067 $
PANC 211253Z 00000KT 6SM BR FEW001 SCT160 M06/M07 A3048 RMK AO2 SLP324 I1000 T10561067 $
PANC 210753Z 33004KT 1/4SM R07R/2600V3500FT FZFG VV002 M04/M06 A3054 RMK AO2 TWR VIS 1/2 SLP344 T10441056 $
PANC 210725Z 00000KT 1/4SM R07R/2600V5000FT FZFG VV002 M04/M06 A3052 RMK AO2 TWR VIS 1/2 T10441061 $
PANC 210716Z 00000KT 1/2SM R07R/2000V3500FT FZFG VV002 M04/M05 A3052 RMK AO2 T10441050 $
PANC 210702Z 00000KT 1/2SM R07R/1800V2200FT FZFG VV002 M04/M06 A3053 RMK AO2 T10441056 $
PANC 210653Z 02003KT 1/4SM R07R/2200V2600FT FZFG VV002 M04/M06 A3053 RMK AO2 TWR VIS 1/2 SLP341 I1000 T10441056 $
PANC 210617Z 00000KT 1/4SM R07R/2000V3000FT FZFG VV002 M05/M07 A3052 RMK AO2 TWR VIS 1/2 T10501067 $
PANC 210610Z 00000KT 1/4SM R07R/1800V2200FT FZFG VV002 M05/M06 A3053 RMK AO2 TWR VIS 1/2 T10501061 $
PANC 210553Z 00000KT 1/4SM R07R/1600V3500FT FZFG VV002 M06/M06 A3052 RMK AO2 TWR VIS 1/2 SLP339 4/013 I1001 I6002 T10561061 11033 21056 58014 $